Time;durP1;ratioP1;P1;durP2;ratioP2;P2;SDS_P1;SDS_P2;PMS_P1;PMS_P2;Temp;Humidity;BMP_temperature;BMP_pressure;BME280_temperature;BME280_humidity;BME280_pressure;Samples;Min_cycle;Max_cycle;Signal;HPM_P1;HPM_P2
2020/12/20 00:04:33;;;;;;;45.35;18.75;;;;;;;2.37;100.00;95763.59;10512750;28;20035;-73
2020/12/20 00:09:33;;;;;;;42.97;17.20;;;;;;;2.32;100.00;95762.53;10537092;28;20047;-78
2020/12/20 00:14:36;;;;;;;39.95;17.38;;;;;;;2.23;100.00;95761.84;10516963;28;20047;-79
2020/12/20 00:19:38;;;;;;;47.85;18.90;;;;;;;2.18;100.00;95761.63;10535541;28;20147;-79
2020/12/20 00:24:41;;;;;;;47.17;18.65;;;;;;;1.97;100.00;95759.88;10535500;28;20463;-79
2020/12/20 00:29:42;;;;;;;48.97;20.75;;;;;;;2.00;100.00;95764.78;10535894;28;20372;-79
2020/12/20 00:34:43;;;;;;;54.40;21.10;;;;;;;2.03;100.00;95769.69;10535739;28;20036;-79
2020/12/20 00:39:43;;;;;;;52.90;20.90;;;;;;;1.95;100.00;95778.59;10535050;28;20355;-79
2020/12/20 00:44:44;;;;;;;43.78;19.48;;;;;;;2.05;100.00;95767.66;10535071;28;20040;-79
2020/12/20 00:49:45;;;;;;;51.78;20.30;;;;;;;1.73;100.00;95777.00;10534187;28;20047;-79
2020/12/20 00:54:46;;;;;;;55.08;20.60;;;;;;;1.65;100.00;95772.69;10516550;28;20040;-79
2020/12/20 00:59:46;;;;;;;44.78;19.67;;;;;;;1.55;100.00;95773.00;10534864;28;20062;-79
2020/12/20 01:04:47;;;;;;;47.30;20.90;;;;;;;1.61;100.00;95766.13;10534940;28;20080;-79
2020/12/20 01:09:47;;;;;;;54.30;21.02;;;;;;;1.42;100.00;95768.38;10505776;28;20036;-78
2020/12/20 01:14:48;;;;;;;51.10;20.52;;;;;;;1.35;100.00;95764.88;10490903;28;20558;-78
2020/12/20 01:19:48;;;;;;;57.50;23.73;;;;;;;1.22;100.00;95756.81;10471208;28;20135;-79
2020/12/20 01:24:49;;;;;;;55.25;22.10;;;;;;;1.38;100.00;95756.53;10492979;28;20036;-80
2020/12/20 01:29:49;;;;;;;55.88;21.20;;;;;;;1.30;100.00;95759.34;10494774;28;20048;-80
2020/12/20 01:34:50;;;;;;;56.35;22.00;;;;;;;1.35;100.00;95752.47;10493100;28;20033;-79
2020/12/20 01:39:50;;;;;;;53.47;22.17;;;;;;;1.51;100.00;95751.38;10489909;28;20037;-79
2020/12/20 01:44:51;;;;;;;62.28;22.38;;;;;;;1.59;100.00;95742.47;10489477;28;20036;-80
2020/12/20 01:49:51;;;;;;;57.47;22.70;;;;;;;1.73;100.00;95747.84;10492346;28;20028;-80
2020/12/20 01:54:56;;;;;;;58.60;20.80;;;;;;;1.78;100.00;95745.47;10492344;28;20047;-79
2020/12/20 01:59:59;;;;;;;53.72;20.58;;;;;;;1.82;100.00;95736.91;10491729;28;20130;-79
2020/12/20 02:05:00;;;;;;;53.88;22.05;;;;;;;1.82;100.00;95746.72;10491420;28;20021;-80
2020/12/20 02:10:00;;;;;;;58.35;23.98;;;;;;;1.78;100.00;95743.63;10487093;28;20036;-79
2020/12/20 02:15:03;;;;;;;64.97;25.05;;;;;;;1.79;100.00;95747.09;10487967;28;20043;-79
2020/12/20 02:20:05;;;;;;;62.13;23.70;;;;;;;1.86;100.00;95746.13;10491065;28;20032;-79
2020/12/20 02:25:05;;;;;;;59.28;23.40;;;;;;;1.62;100.00;95744.75;10490356;28;20060;-79
2020/12/20 02:30:06;;;;;;;57.47;23.00;;;;;;;1.78;100.00;95735.66;10488460;28;20120;-79
2020/12/20 02:35:06;;;;;;;54.38;19.88;;;;;;;1.40;100.00;95741.28;10470974;28;20127;-79
2020/12/20 02:40:07;;;;;;;52.33;21.00;;;;;;;1.24;100.00;95742.34;10489431;28;20052;-78
2020/12/20 02:45:07;;;;;;;61.65;23.65;;;;;;;1.22;100.00;95748.88;10488578;28;20036;-78
2020/12/20 02:50:08;;;;;;;65.88;25.08;;;;;;;1.18;100.00;95741.28;10488773;28;20086;-78
2020/12/20 02:55:08;;;;;;;49.53;21.52;;;;;;;1.09;100.00;95741.59;10488691;28;20835;-78
2020/12/20 03:00:09;;;;;;;66.25;23.63;;;;;;;0.90;100.00;95745.69;10488120;28;20032;-76
2020/12/20 03:05:09;;;;;;;62.03;22.25;;;;;;;0.91;100.00;95747.31;10486566;28;20033;-76
2020/12/20 03:10:10;;;;;;;61.95;23.63;;;;;;;0.92;100.00;95741.03;10486587;28;20028;-76
2020/12/20 03:15:11;;;;;;;62.97;24.33;;;;;;;0.85;100.00;95739.13;10486145;28;20053;-76
2020/12/20 03:20:12;;;;;;;64.72;23.00;;;;;;;0.85;100.00;95733.84;10486129;28;20040;-78
2020/12/20 03:25:12;;;;;;;70.88;24.05;;;;;;;0.98;100.00;95742.94;10487571;28;20028;-77
2020/12/20 03:30:13;;;;;;;65.78;23.60;;;;;;;1.07;100.00;95744.44;10486772;28;20040;-78
2020/12/20 03:35:14;;;;;;;49.63;21.73;;;;;;;1.05;100.00;95738.53;10486833;28;20033;-77
2020/12/20 03:40:14;;;;;;;63.10;24.23;;;;;;;0.96;100.00;95737.84;10487290;28;20586;-77
2020/12/20 03:45:16;;;;;;;65.60;24.42;;;;;;;1.04;100.00;95742.16;10494347;28;20043;-77
2020/12/20 03:50:17;;;;;;;68.68;26.60;;;;;;;1.00;100.00;95743.56;10493678;28;20044;-77
2020/12/20 03:55:18;;;;;;;55.35;23.02;;;;;;;1.23;100.00;95740.75;10493473;28;20028;-76
2020/12/20 04:00:19;;;;;;;61.00;25.25;;;;;;;1.28;100.00;95737.50;10493274;28;20102;-76
2020/12/20 04:05:20;;;;;;;72.30;25.00;;;;;;;1.41;100.00;95742.94;10492949;28;20532;-76
2020/12/20 04:10:21;;;;;;;55.83;21.88;;;;;;;1.47;100.00;95739.50;10491912;28;20037;-76
2020/12/20 04:15:22;;;;;;;60.38;24.80;;;;;;;1.44;100.00;95745.19;10490606;28;20052;-76
2020/12/20 04:20:22;;;;;;;54.38;22.88;;;;;;;1.44;100.00;95747.84;10491866;28;20033;-77
2020/12/20 04:25:23;;;;;;;56.67;22.55;;;;;;;1.39;100.00;95741.47;10492625;28;20036;-77
2020/12/20 04:30:24;;;;;;;60.90;23.63;;;;;;;1.28;100.00;95748.91;10492542;28;20033;-77
2020/12/20 04:35:24;;;;;;;71.60;25.83;;;;;;;1.47;100.00;95747.47;10492434;28;20043;-77
2020/12/20 04:40:25;;;;;;;62.05;23.35;;;;;;;1.34;100.00;95752.63;10491970;28;20068;-76
2020/12/20 04:45:26;;;;;;;67.60;25.27;;;;;;;1.27;100.00;95752.59;10491635;28;20039;-76
2020/12/20 04:50:29;;;;;;;75.18;28.05;;;;;;;1.19;100.00;95745.56;10491568;28;20238;-77
2020/12/20 04:55:29;;;;;;;66.05;24.17;;;;;;;1.15;100.00;95749.59;10490209;28;20032;-76
2020/12/20 05:00:30;;;;;;;72.73;26.37;;;;;;;1.02;100.00;95752.16;10490859;28;20484;-76
2020/12/20 05:05:30;;;;;;;69.82;23.98;;;;;;;0.98;100.00;95750.88;10490934;28;20291;-76
2020/12/20 05:10:38;;;;;;;71.55;26.38;;;;;;;0.95;100.00;95748.59;10490579;28;20124;-76
2020/12/20 05:15:39;;;;;;;67.75;26.63;;;;;;;0.99;100.00;95752.50;10489779;28;20033;-75
2020/12/20 05:20:47;;;;;;;70.25;24.60;;;;;;;1.02;100.00;95757.44;10505614;28;20442;-75
2020/12/20 05:25:48;;;;;;;70.55;26.48;;;;;;;1.01;100.00;95769.03;10522957;28;20034;-75
2020/12/20 05:30:49;;;;;;;62.10;23.57;;;;;;;1.00;100.00;95767.38;10487191;28;20035;-75
2020/12/20 05:35:57;;;;;;;73.07;25.15;;;;;;;0.99;100.00;95768.38;10498702;28;20298;-75
2020/12/20 05:40:58;;;;;;;63.78;23.35;;;;;;;1.02;100.00;95766.19;10530118;28;20036;-76
2020/12/20 05:45:59;;;;;;;64.20;24.55;;;;;;;1.07;100.00;95775.41;10530760;28;20035;-76
2020/12/20 05:51:07;;;;;;;68.03;21.83;;;;;;;1.02;100.00;95775.97;10512635;28;20038;-76
2020/12/20 05:56:07;;;;;;;57.00;21.05;;;;;;;1.18;100.00;95781.00;10497146;28;20040;-75
2020/12/20 06:01:08;;;;;;;51.60;21.33;;;;;;;1.29;100.00;95778.88;10488066;28;20040;-75
2020/12/20 06:06:15;;;;;;;50.00;19.55;;;;;;;1.35;100.00;95792.19;10487670;28;20020;-75
2020/12/20 06:11:22;;;;;;;43.78;18.20;;;;;;;1.58;100.00;95792.97;10494118;28;20762;-76
2020/12/20 06:16:26;;;;;;;50.83;20.65;;;;;;;1.71;100.00;95803.72;10529400;28;20044;-76
2020/12/20 06:21:55;;;;;;;52.78;21.77;;;;;;;1.80;100.00;95796.44;10528976;28;20110;-76
2020/12/20 06:27:02;;;;;;;50.45;20.83;;;;;;;1.91;100.00;95792.44;10527731;28;20069;-76
2020/12/20 06:32:04;;;;;;;45.80;18.95;;;;;;;1.78;100.00;95793.16;10532264;28;20032;-77
2020/12/20 06:37:05;;;;;;;49.42;20.77;;;;;;;1.78;100.00;95801.94;10527628;28;20165;-77
2020/12/20 06:42:06;;;;;;;49.70;19.67;;;;;;;1.80;100.00;95797.28;10529720;28;20084;-77
2020/12/20 06:47:07;;;;;;;45.47;18.08;;;;;;;1.71;100.00;95803.72;10528927;28;20040;-77
2020/12/20 06:52:16;;;;;;;42.85;18.60;;;;;;;1.69;100.00;95809.19;10530006;28;20036;-77
2020/12/20 06:57:17;;;;;;;40.58;17.65;;;;;;;1.68;100.00;95812.03;10529473;28;20036;-77
2020/12/20 07:02:42;;;;;;;44.30;17.88;;;;;;;1.83;100.00;95809.31;10529630;28;20031;-77
2020/12/20 07:08:10;;;;;;;49.53;18.58;;;;;;;2.03;100.00;95812.94;10529036;28;20040;-77
2020/12/20 07:13:12;;;;;;;41.08;18.40;;;;;;;2.12;100.00;95816.28;10526438;28;20127;-77
2020/12/20 07:18:40;;;;;;;41.83;16.50;;;;;;;2.17;100.00;95811.19;10505285;28;20052;-77
2020/12/20 07:23:43;;;;;;;37.95;15.85;;;;;;;2.13;100.00;95823.19;10495046;28;20099;-77
2020/12/20 07:28:43;;;;;;;52.88;17.10;;;;;;;1.97;100.00;95820.84;10494244;28;20518;-77
2020/12/20 07:33:44;;;;;;;46.97;17.07;;;;;;;1.96;100.00;95816.56;10506651;28;20043;-76
2020/12/20 07:38:44;;;;;;;42.83;17.55;;;;;;;2.03;100.00;95820.06;10532320;28;20290;-76
2020/12/20 07:43:47;;;;;;;43.00;17.83;;;;;;;2.16;100.00;95814.88;10534427;28;20032;-77
2020/12/20 07:48:48;;;;;;;43.25;16.10;;;;;;;2.35;100.00;95815.19;10528095;28;21201;-77
2020/12/20 07:53:51;;;;;;;36.25;15.30;;;;;;;2.48;100.00;95817.09;10536038;28;20032;-73
2020/12/20 07:58:54;;;;;;;41.92;16.75;;;;;;;2.44;100.00;95813.19;10520015;28;20040;-72
2020/12/20 08:04:22;;;;;;;38.75;15.45;;;;;;;2.67;100.00;95813.72;10493264;28;20395;-73
2020/12/20 08:09:27;;;;;;;35.97;17.33;;;;;;;2.87;100.00;95813.00;10520444;28;20040;-73
2020/12/20 08:14:27;;;;;;;40.00;13.45;;;;;;;2.67;100.00;95813.72;10531192;28;20032;-73
2020/12/20 08:19:31;;;;;;;37.30;14.00;;;;;;;2.72;100.00;95821.09;10530075;28;20487;-72
2020/12/20 08:24:40;;;;;;;46.60;17.15;;;;;;;2.78;100.00;95815.03;10529413;28;20350;-73
2020/12/20 08:29:41;;;;;;;34.80;15.13;;;;;;;2.69;100.00;95817.03;10531046;28;20034;-73
2020/12/20 08:34:42;;;;;;;52.33;18.08;;;;;;;2.72;100.00;95824.59;10529127;28;20083;-73
2020/12/20 08:39:43;;;;;;;45.03;17.80;;;;;;;2.79;100.00;95818.47;10527936;28;20119;-73
2020/12/20 08:44:46;;;;;;;39.47;18.50;;;;;;;2.87;100.00;95813.00;10530025;28;20036;-73
2020/12/20 08:50:00;;;;;;;40.80;17.92;;;;;;;2.97;100.00;95825.91;10531372;28;20028;-72
2020/12/20 08:55:02;;;;;;;44.47;19.42;;;;;;;2.56;100.00;95817.75;10501013;28;20434;-73
2020/12/20 09:00:15;;;;;;;46.03;19.50;;;;;;;2.72;100.00;95821.09;10519251;28;20043;-73
2020/12/20 09:05:17;;;;;;;45.92;21.05;;;;;;;2.78;100.00;95811.53;10532595;28;20089;-73
2020/12/20 09:10:20;;;;;;;47.20;20.50;;;;;;;2.75;100.00;95810.09;10533020;28;20039;-73
2020/12/20 09:15:43;;;;;;;36.33;17.98;;;;;;;2.73;100.00;95812.13;10513764;28;20522;-73
2020/12/20 09:20:45;;;;;;;40.90;17.90;;;;;;;2.84;100.00;95808.91;10532831;28;20032;-73
2020/12/20 09:25:47;;;;;;;33.03;13.55;;;;;;;2.67;100.00;95805.78;10532146;28;20039;-73
2020/12/20 09:30:50;;;;;;;40.65;18.80;;;;;;;2.51;100.00;95804.28;10531182;28;20032;-72
2020/12/20 09:35:51;;;;;;;39.15;17.77;;;;;;;2.64;100.00;95803.53;10531605;28;20090;-72
2020/12/20 09:41:12;;;;;;;42.35;21.20;;;;;;;2.78;100.00;95814.19;10512233;28;20127;-72
2020/12/20 09:46:22;;;;;;;35.55;17.67;;;;;;;2.85;100.00;95801.78;10534529;28;20044;-73
2020/12/20 09:51:24;;;;;;;39.28;16.88;;;;;;;2.93;100.00;95796.31;10530357;28;20051;-72
2020/12/20 09:56:24;;;;;;;28.77;14.73;;;;;;;2.70;100.00;95796.59;10512847;28;20039;-72
2020/12/20 10:01:27;;;;;;;32.72;15.27;;;;;;;2.57;100.00;95792.06;10531148;28;20031;-72
2020/12/20 10:06:28;;;;;;;35.58;16.13;;;;;;;2.59;100.00;95794.50;10529778;28;20099;-72
2020/12/20 10:11:28;;;;;;;34.60;16.47;;;;;;;2.73;100.00;95796.19;10530421;28;20036;-73
2020/12/20 10:16:28;;;;;;;30.63;15.97;;;;;;;2.65;100.00;95785.75;10530022;28;20048;-73
2020/12/20 10:21:29;;;;;;;38.50;19.47;;;;;;;2.83;100.00;95779.91;10529646;28;20285;-73
2020/12/20 10:26:29;;;;;;;33.50;17.05;;;;;;;2.83;100.00;95782.56;10529880;28;20040;-72
2020/12/20 10:31:30;;;;;;;36.90;16.73;;;;;;;2.59;100.00;95778.59;10529999;28;20028;-73
2020/12/20 10:36:30;;;;;;;35.93;17.30;;;;;;;2.65;100.00;95770.66;10517012;28;20378;-72
2020/12/20 10:41:38;;;;;;;38.67;15.47;;;;;;;2.83;100.00;95763.97;10487293;28;20412;-73
2020/12/20 10:46:38;;;;;;;32.50;15.27;;;;;;;2.84;100.00;95763.78;10487354;28;20411;-73
2020/12/20 10:51:38;;;;;;;38.03;16.13;;;;;;;2.77;100.00;95765.59;10486372;28;20036;-73
2020/12/20 10:56:39;;;;;;;43.17;18.80;;;;;;;2.97;100.00;95764.84;10486870;28;20067;-73
2020/12/20 11:01:40;;;;;;;37.93;17.53;;;;;;;2.80;100.00;95761.72;10487265;28;20290;-73
2020/12/20 11:06:40;;;;;;;38.03;16.73;;;;;;;2.88;100.00;95750.94;10486464;28;20282;-73
2020/12/20 11:11:43;;;;;;;31.35;16.17;;;;;;;2.86;100.00;95753.78;10487012;28;20033;-74
2020/12/20 11:16:44;;;;;;;36.28;18.20;;;;;;;2.88;100.00;95758.91;10486870;28;20055;-74
2020/12/20 11:21:53;;;;;;;31.30;16.55;;;;;;;2.90;100.00;95755.03;10487108;28;20048;-73
2020/12/20 11:26:54;;;;;;;35.00;17.42;;;;;;;2.93;100.00;95747.66;10486526;28;20075;-72
2020/12/20 11:31:55;;;;;;;29.83;15.10;;;;;;;3.03;100.00;95750.78;10468496;28;20506;-73
2020/12/20 11:36:55;;;;;;;33.53;16.60;;;;;;;2.97;100.00;95751.56;10486736;28;20025;-73
2020/12/20 11:41:55;;;;;;;35.63;16.03;;;;;;;3.01;100.00;95750.16;10486055;28;20291;-73
2020/12/20 11:46:56;;;;;;;39.93;17.30;;;;;;;3.04;100.00;95761.19;10485625;28;20658;-72
2020/12/20 11:51:56;;;;;;;33.87;15.97;;;;;;;2.97;100.00;95760.34;10485886;28;20036;-73
2020/12/20 11:56:57;;;;;;;30.60;14.17;;;;;;;2.84;100.00;95747.84;10485971;28;20298;-73
2020/12/20 12:02:01;;;;;;;30.83;15.65;;;;;;;2.75;100.00;95746.41;10487011;28;20405;-73
2020/12/20 12:07:01;;;;;;;39.17;17.88;;;;;;;2.87;100.00;95746.63;10493011;28;20024;-72
2020/12/20 12:12:02;;;;;;;39.13;17.98;;;;;;;2.48;100.00;95733.00;10493210;28;20032;-73
2020/12/20 12:17:02;;;;;;;39.47;18.20;;;;;;;2.46;100.00;95735.03;10507685;28;20072;-73
2020/12/20 12:22:03;;;;;;;48.20;19.70;;;;;;;2.69;100.00;95737.41;10492406;28;20496;-73
2020/12/20 12:27:04;;;;;;;43.50;18.20;;;;;;;2.58;100.00;95737.13;10492078;28;20279;-73
2020/12/20 12:32:04;;;;;;;34.15;16.73;;;;;;;2.73;100.00;95738.66;10473851;28;20039;-74
2020/12/20 12:37:06;;;;;;;35.10;16.80;;;;;;;2.55;100.00;95736.53;10491960;28;20044;-73
2020/12/20 12:42:06;;;;;;;30.70;14.88;;;;;;;2.70;100.00;95728.41;10491622;28;20036;-73
2020/12/20 12:47:07;;;;;;;40.90;17.17;;;;;;;2.85;100.00;95733.56;10491318;28;20028;-73
2020/12/20 12:52:08;;;;;;;29.15;15.02;;;;;;;2.87;100.00;95733.34;10491790;28;20079;-73
2020/12/20 12:57:08;;;;;;;36.25;15.98;;;;;;;2.95;100.00;95741.16;10491471;28;20445;-73
2020/12/20 13:02:09;;;;;;;28.23;15.57;;;;;;;2.70;100.00;95738.22;10490998;28;20090;-73
2020/12/20 13:07:09;;;;;;;35.45;17.02;;;;;;;2.48;100.00;95738.31;10490791;28;20028;-73
2020/12/20 13:12:11;;;;;;;36.63;17.60;;;;;;;2.37;100.00;95750.31;10490640;28;20343;-73
2020/12/20 13:17:11;;;;;;;42.00;18.25;;;;;;;2.36;100.00;95750.53;10470859;28;20052;-72
2020/12/20 13:22:12;;;;;;;38.90;17.58;;;;;;;2.30;100.00;95753.94;10490316;28;20040;-72
2020/12/20 13:27:12;;;;;;;39.65;18.42;;;;;;;2.39;100.00;95747.47;10490176;28;20032;-72
2020/12/20 13:32:13;;;;;;;38.00;17.40;;;;;;;2.34;100.00;95745.38;10489748;28;20028;-73
2020/12/20 13:37:13;;;;;;;44.10;19.13;;;;;;;2.56;100.00;95746.09;10489389;28;20029;-73
2020/12/20 13:42:16;;;;;;;35.22;16.95;;;;;;;2.60;100.00;95753.69;10471871;28;20044;-73
2020/12/20 13:47:16;;;;;;;43.80;21.80;;;;;;;2.51;100.00;95761.81;10488983;28;20721;-73
2020/12/20 13:52:17;;;;;;;41.03;19.07;;;;;;;2.49;100.00;95760.38;10488690;28;20040;-73
2020/12/20 13:57:17;;;;;;;46.37;21.83;;;;;;;2.55;100.00;95759.56;10488351;28;20307;-73
2020/12/20 14:02:18;;;;;;;50.28;22.17;;;;;;;2.74;100.00;95753.53;10470639;28;20279;-73
2020/12/20 14:07:18;;;;;;;50.10;24.13;;;;;;;2.58;100.00;95751.22;10488285;28;20104;-72
2020/12/20 14:12:19;;;;;;;55.97;24.30;;;;;;;2.74;100.00;95747.41;10488706;28;20101;-73
2020/12/20 14:17:19;;;;;;;51.90;23.60;;;;;;;2.83;100.00;95763.97;10488088;28;20338;-73
2020/12/20 14:22:19;;;;;;;54.10;25.42;;;;;;;2.86;100.00;95763.56;10488200;28;20040;-73
2020/12/20 14:27:20;;;;;;;51.13;21.88;;;;;;;2.95;100.00;95759.72;10488230;28;20032;-73
2020/12/20 14:32:20;;;;;;;52.65;22.85;;;;;;;2.86;100.00;95769.72;10487829;28;20050;-73
2020/12/20 14:37:21;;;;;;;49.33;23.20;;;;;;;2.68;100.00;95767.59;10487147;28;20083;-72
2020/12/20 14:42:24;;;;;;;43.60;20.38;;;;;;;2.59;100.00;95771.44;10475155;28;20544;-73
2020/12/20 14:47:25;;;;;;;53.78;22.60;;;;;;;2.52;100.00;95767.94;10529169;28;20847;-73
2020/12/20 14:52:25;;;;;;;41.28;18.67;;;;;;;2.35;100.00;95770.09;10491596;28;20086;-72
2020/12/20 14:57:27;;;;;;;46.13;19.80;;;;;;;2.47;100.00;95770.34;10487354;28;20455;-72
2020/12/20 15:02:27;;;;;;;50.60;22.52;;;;;;;2.63;100.00;95767.38;10528691;28;20097;-73
2020/12/20 15:07:29;;;;;;;40.40;20.33;;;;;;;2.78;100.00;95782.31;10528633;28;20085;-72
2020/12/20 15:12:29;;;;;;;43.40;19.77;;;;;;;2.84;100.00;95779.69;10528559;28;20290;-72
2020/12/20 15:17:30;;;;;;;45.30;19.42;;;;;;;2.95;100.00;95777.50;10508528;28;20040;-72
2020/12/20 15:22:31;;;;;;;31.10;14.32;;;;;;;3.07;100.00;95773.25;10501106;28;20036;-72
2020/12/20 15:27:31;;;;;;;33.47;15.43;;;;;;;3.02;100.00;95784.47;10528553;28;20028;-72
2020/12/20 15:32:32;;;;;;;31.57;13.70;;;;;;;3.02;100.00;95773.84;10528287;28;20036;-72
2020/12/20 15:37:32;;;;;;;30.05;13.82;;;;;;;2.97;100.00;95781.56;10505899;28;20380;-73
2020/12/20 15:42:33;;;;;;;27.07;12.83;;;;;;;3.02;100.00;95788.97;10514502;28;20410;-73
2020/12/20 15:47:33;;;;;;;30.15;13.82;;;;;;;3.11;100.00;95785.09;10500355;28;20286;-73
2020/12/20 15:52:34;;;;;;;28.45;13.27;;;;;;;3.19;100.00;95800.03;10499892;28;20774;-73
2020/12/20 15:57:34;;;;;;;41.75;17.50;;;;;;;3.08;100.00;95796.97;10531146;28;20035;-70
2020/12/20 16:02:35;;;;;;;40.70;18.60;;;;;;;3.16;100.00;95798.59;10529193;28;20494;-71
2020/12/20 16:07:35;;;;;;;44.38;19.15;;;;;;;3.08;100.00;95791.66;10529241;28;20369;-72
2020/12/20 16:12:36;;;;;;;43.38;19.77;;;;;;;2.87;100.00;95794.41;10555364;28;20032;-71
2020/12/20 16:17:37;;;;;;;41.17;17.02;;;;;;;2.81;100.00;95814.63;10498565;28;20051;-72
2020/12/20 16:22:37;;;;;;;38.80;18.27;;;;;;;2.84;100.00;95814.22;10521030;28;20052;-72
2020/12/20 16:27:37;;;;;;;36.40;18.15;;;;;;;2.84;100.00;95818.72;10514598;28;20043;-71
2020/12/20 16:32:38;;;;;;;34.37;15.87;;;;;;;2.78;100.00;95820.34;10521714;28;20407;-73
2020/12/20 16:37:38;;;;;;;34.63;17.27;;;;;;;2.94;100.00;95824.47;10525055;28;20304;-75
2020/12/20 16:42:39;;;;;;;30.02;15.55;;;;;;;2.97;100.00;95833.88;10525017;28;20036;-74
2020/12/20 16:47:40;;;;;;;33.33;15.88;;;;;;;2.98;100.00;95827.56;10507262;28;20020;-74
2020/12/20 16:52:40;;;;;;;35.95;15.77;;;;;;;2.96;100.00;95834.88;10523039;28;20539;-74
2020/12/20 16:57:41;;;;;;;32.22;15.13;;;;;;;2.99;100.00;95823.91;10527989;28;20035;-74
2020/12/20 17:02:42;;;;;;;27.13;13.60;;;;;;;2.89;100.00;95834.88;10527073;28;20081;-75
2020/12/20 17:07:43;;;;;;;31.52;13.73;;;;;;;2.97;100.00;95840.00;10527868;28;20475;-75
2020/12/20 17:12:44;;;;;;;22.97;11.83;;;;;;;2.80;100.00;95833.41;10525792;28;20028;-75
2020/12/20 17:17:45;;;;;;;34.42;14.45;;;;;;;2.81;100.00;95838.50;10504944;28;20044;-73
2020/12/20 17:22:45;;;;;;;31.10;14.15;;;;;;;2.83;100.00;95841.81;10525340;28;20067;-73
2020/12/20 17:27:46;;;;;;;27.33;13.30;;;;;;;2.85;100.00;95841.59;10522119;28;20032;-73
2020/12/20 17:32:46;;;;;;;24.40;12.68;;;;;;;2.81;100.00;95846.47;10526155;28;20094;-72
2020/12/20 17:37:48;;;;;;;28.55;14.60;;;;;;;2.75;100.00;95836.66;10525828;28;20031;-73
2020/12/20 17:42:49;;;;;;;29.92;13.02;;;;;;;2.79;100.00;95840.56;10525062;28;20864;-72
2020/12/20 17:47:49;;;;;;;28.58;14.48;;;;;;;2.75;100.00;95831.34;10501646;28;20035;-73
2020/12/20 17:52:50;;;;;;;28.83;13.33;;;;;;;2.82;100.00;95834.84;10523012;28;20510;-73
2020/12/20 17:57:51;;;;;;;24.30;12.03;;;;;;;2.86;100.00;95844.06;10522933;28;20318;-73
2020/12/20 18:02:51;;;;;;;25.60;12.82;;;;;;;2.85;100.00;95841.59;10520122;28;20816;-72
2020/12/20 18:07:52;;;;;;;24.08;12.02;;;;;;;2.86;100.00;95840.56;10524391;28;20024;-73
2020/12/20 18:12:53;;;;;;;27.17;12.68;;;;;;;2.87;100.00;95840.38;10524753;28;20036;-73
2020/12/20 18:17:53;;;;;;;24.10;11.30;;;;;;;2.87;100.00;95837.72;10516806;28;20032;-72
2020/12/20 18:22:54;;;;;;;18.10;9.65;;;;;;;2.89;100.00;95838.34;10523613;28;20024;-72
2020/12/20 18:27:54;;;;;;;26.02;10.80;;;;;;;2.86;100.00;95837.91;10522225;28;20024;-72
2020/12/20 18:32:55;;;;;;;23.98;10.85;;;;;;;2.86;100.00;95848.53;10523987;28;20081;-73
2020/12/20 18:37:57;;;;;;;24.00;11.33;;;;;;;2.78;100.00;95849.53;10523593;28;20020;-73
2020/12/20 18:42:57;;;;;;;22.52;10.93;;;;;;;2.62;100.00;95847.19;10506542;28;20040;-73
2020/12/20 18:47:58;;;;;;;25.60;11.65;;;;;;;2.50;100.00;95861.00;10521321;28;20510;-73
2020/12/20 18:52:58;;;;;;;22.95;10.63;;;;;;;2.56;100.00;95854.91;10513119;28;20494;-73
2020/12/20 18:57:59;;;;;;;18.40;9.30;;;;;;;2.55;100.00;95850.63;10505097;28;20024;-73
2020/12/20 19:03:03;;;;;;;18.95;9.05;;;;;;;2.59;100.00;95852.91;10522901;28;20066;-74
2020/12/20 19:08:03;;;;;;;18.30;9.52;;;;;;;2.55;100.00;95855.94;10524866;28;20039;-73
2020/12/20 19:13:04;;;;;;;15.32;9.10;;;;;;;2.51;100.00;95862.66;10512194;28;20047;-73
2020/12/20 19:18:06;;;;;;;17.17;8.38;;;;;;;2.49;100.00;95862.00;10535256;28;20063;-73
2020/12/20 19:23:07;;;;;;;15.00;7.90;;;;;;;2.49;100.00;95869.97;10529385;28;20454;-73
2020/12/20 19:28:07;;;;;;;17.20;8.45;;;;;;;2.60;100.00;95865.16;10526562;28;20073;-73
2020/12/20 19:33:08;;;;;;;16.87;8.73;;;;;;;2.67;100.00;95858.84;10536037;28;20028;-73
2020/12/20 19:38:09;;;;;;;19.08;9.30;;;;;;;2.78;100.00;95868.13;10522254;28;20398;-72
2020/12/20 19:43:09;;;;;;;17.35;9.02;;;;;;;2.87;100.00;95866.91;10534584;28;20043;-73
2020/12/20 19:48:10;;;;;;;15.87;8.00;;;;;;;2.93;100.00;95864.50;10534766;28;20032;-73
2020/12/20 19:53:10;;;;;;;15.25;8.50;;;;;;;2.87;100.00;95866.91;10506719;28;20294;-72
2020/12/20 19:58:11;;;;;;;14.38;7.63;;;;;;;2.86;100.00;95862.66;10527785;28;20043;-73
2020/12/20 20:03:13;;;;;;;15.88;8.52;;;;;;;2.66;100.00;95861.72;10499518;28;20050;-73
2020/12/20 20:08:13;;;;;;;17.50;9.20;;;;;;;2.49;100.00;95869.16;10474042;28;20068;-73
2020/12/20 20:13:13;;;;;;;18.30;8.37;;;;;;;2.55;100.00;95861.25;10491787;28;20181;-73
2020/12/20 20:18:14;;;;;;;15.13;8.30;;;;;;;2.35;100.00;95868.25;10491962;28;20654;-73
2020/12/20 20:23:14;;;;;;;13.80;7.50;;;;;;;2.24;100.00;95861.63;10490526;28;20310;-72
2020/12/20 20:28:15;;;;;;;22.30;8.82;;;;;;;2.38;100.00;95867.84;10489542;28;20282;-72
2020/12/20 20:33:15;;;;;;;18.83;8.13;;;;;;;2.34;100.00;95856.81;10489687;28;20043;-73
2020/12/20 20:38:16;;;;;;;15.07;7.20;;;;;;;2.44;100.00;95858.31;10507926;28;20071;-73
2020/12/20 20:43:16;;;;;;;16.75;8.90;;;;;;;2.48;100.00;95863.03;10486875;28;20085;-74
2020/12/20 20:48:17;;;;;;;19.45;8.27;;;;;;;2.46;100.00;95862.41;10495876;28;20092;-74
2020/12/20 20:53:17;;;;;;;18.40;8.00;;;;;;;2.49;100.00;95866.50;10491797;28;20089;-72
2020/12/20 20:58:18;;;;;;;20.02;9.98;;;;;;;2.51;100.00;95860.00;10488473;28;20114;-72
2020/12/20 21:03:18;;;;;;;19.55;10.23;;;;;;;2.58;100.00;95853.91;10489448;28;20036;-72
2020/12/20 21:08:18;;;;;;;21.87;9.03;;;;;;;2.63;100.00;95859.44;10487478;28;20481;-72
2020/12/20 21:13:19;;;;;;;21.03;10.77;;;;;;;2.56;100.00;95868.19;10489040;28;20286;-72
2020/12/20 21:18:19;;;;;;;18.83;9.23;;;;;;;2.63;100.00;95865.56;10500392;28;20113;-72
2020/12/20 21:23:20;;;;;;;19.50;9.43;;;;;;;2.69;100.00;95859.50;10516715;28;20327;-72
2020/12/20 21:28:20;;;;;;;18.90;9.48;;;;;;;2.60;100.00;95865.97;10556599;28;20096;-72
2020/12/20 21:33:20;;;;;;;15.43;7.07;;;;;;;2.69;100.00;95862.16;10533660;28;20034;-73
2020/12/20 21:38:21;;;;;;;16.03;8.13;;;;;;;2.70;100.00;95862.97;10530873;28;20285;-72
2020/12/20 21:43:21;;;;;;;14.73;8.53;;;;;;;2.66;100.00;95864.38;10531433;28;20032;-75
2020/12/20 21:48:21;;;;;;;15.48;8.00;;;;;;;2.65;100.00;95873.34;10513906;28;20282;-75
2020/12/20 21:53:23;;;;;;;17.80;7.50;;;;;;;2.53;100.00;95867.75;10532136;28;20410;-75
2020/12/20 21:58:23;;;;;;;15.45;7.35;;;;;;;2.51;100.00;95867.97;10531349;28;20282;-75
2020/12/20 22:03:24;;;;;;;12.10;6.63;;;;;;;2.52;100.00;95863.47;10531246;28;20032;-75
2020/12/20 22:08:24;;;;;;;11.68;6.53;;;;;;;2.42;100.00;95844.44;10531132;28;20278;-75
2020/12/20 22:13:25;;;;;;;14.87;7.33;;;;;;;2.41;100.00;95850.75;10498383;28;20024;-75
2020/12/20 22:18:26;;;;;;;13.03;6.80;;;;;;;2.37;100.00;95843.19;10488911;28;20168;-75
2020/12/20 22:23:26;;;;;;;15.90;7.38;;;;;;;2.32;100.00;95852.72;10488668;28;20744;-75
2020/12/20 22:28:27;;;;;;;12.43;6.43;;;;;;;2.37;100.00;95840.53;10488438;28;20029;-75
2020/12/20 22:33:27;;;;;;;13.67;5.87;;;;;;;2.37;100.00;95842.34;10488343;28;20438;-75
2020/12/20 22:38:28;;;;;;;12.65;6.38;;;;;;;2.42;100.00;95837.28;10488280;28;20290;-75
2020/12/20 22:43:28;;;;;;;12.20;5.70;;;;;;;2.46;100.00;95838.53;10488003;28;20028;-75
2020/12/20 22:48:29;;;;;;;9.93;5.60;;;;;;;2.49;100.00;95834.66;10487863;28;20106;-75
2020/12/20 22:53:29;;;;;;;9.25;6.03;;;;;;;2.53;100.00;95836.72;10488137;28;20040;-75
2020/12/20 22:58:33;;;;;;;13.33;6.23;;;;;;;2.53;100.00;95836.72;10487825;28;20043;-75